Latest Weather Observations for Winton

IDQ60801

Issued at 4:02 pm EST Monday 20 February 2017 (issued every 30 minutes, with the page automatically refreshed every 10 minutes)

About weather observations | Map of weather stations | Latest weather observations for QLD | Other Formats
Station Details ID: 037039 Name: WINTON AIRPORT Lat: -22.36 Lon: 143.08 Height: 192.2 m
Data from the previous 72 hours. | See also: Recent months at Winton
Date/Time
EST
Temp
°C
App
Temp
°C
Dew
Point
°C
Rel
Hum
%
Delta-T
°C
Wind Press
QNH
hPa
Press
MSL
hPa
Rain since
9am
mm
Dir  Spd
km/h
Gust
km/h
Spd
kts
Gust
kts
20/04:00pm 34.6 32.0 3.2 14 16.5 SE 6 11 3 6 1009.0 1007.6 0.0
20/03:30pm 35.1 31.1 2.6 13 16.9 SSE 13 26 7 14 1009.1 1007.7 0.0
20/03:00pm 34.8 31.7 3.4 14 16.5 SE 9 20 5 11 1009.4 1008.0 0.0
20/02:30pm 35.3 31.9 3.8 14 16.7 S 11 20 6 11 1009.6 1008.2 0.0
20/02:00pm 34.4 31.8 4.0 15 16.1 WNW 7 15 4 8 1009.9 1008.5 0.0
20/01:30pm 34.1 31.2 4.7 16 15.7 SSE 9 22 5 12 1009.9 1008.5 0.0
20/01:00pm 33.9 30.6 6.3 18 15.1 ESE 13 24 7 13 1010.2 1008.8 0.0
20/12:30pm 32.9 29.3 8.4 22 13.8 ESE 17 28 9 15 1011.1 1009.6 0.0
20/12:00pm 32.2 28.4 9.7 25 12.9 ESE 20 30 11 16 1011.4 1009.9 0.0
20/11:30am 31.7 27.5 9.8 26 12.5 SE 22 37 12 20 1011.9 1010.4 0.0
20/11:00am 30.3 25.7 9.8 28 11.7 ESE 24 35 13 19 1012.3 1010.9 0.0
20/10:30am 30.9 26.9 10.3 28 11.8 SE 22 32 12 17 1012.5 1011.1 0.0
20/10:00am 29.6 25.6 9.2 28 11.5 ESE 20 32 11 17 1012.5 1011.1 0.0
20/09:30am 28.5 23.3 7.1 26 11.5 SE 24 32 13 17 1012.5 1011.1 0.0
20/09:00am 27.8 21.6 6.0 25 11.5 SE 28 37 15 20 1012.1 1010.7 0.0
20/08:30am 26.5 19.5 4.3 24 11.3 SE 30 39 16 21 1012.0 1010.6 0.0
20/08:00am 26.1 19.6 2.7 22 11.5 SSE 26 35 14 19 1011.8 1010.3 0.0
20/07:30am 25.3 19.6 2.7 23 11.1 SSE 22 41 12 22 1011.5 1010.0 0.0
20/07:00am 22.7 18.9 3.8 29 9.3 S 13 15 7 8 1011.2 1009.7 0.0
20/06:30am 21.2 17.7 3.4 31 8.6 S 11 15 6 8 1011.0 1009.5 0.0
20/06:00am 20.5 17.9 4.1 34 8.0 S 7 11 4 6 1010.4 1009.0 0.0
20/05:30am 20.1 17.8 5.7 39 7.2 SSE 7 9 4 5 1010.3 1008.9 0.0
20/05:00am 20.6 17.6 6.2 39 7.3 S 11 13 6 7 1010.0 1008.6 0.0
20/04:30am 21.7 19.5 7.9 41 7.3 SSE 9 9 5 5 1010.1 1008.7 0.0
20/04:00am 22.8 20.6 7.8 38 7.9 SSE 9 9 5 5 1010.2 1008.8 0.0
20/03:30am 21.4 21.0 11.1 52 5.7 SE 4 7 2 4 1010.2 1008.8 0.0
20/03:00am 22.4 21.4 10.2 46 6.7 SSE 6 7 3 4 1010.0 1008.6 0.0
20/02:30am 23.1 22.4 10.2 44 7.1 SSE 4 6 2 3 1010.0 1008.6 0.0
20/02:00am 22.8 23.6 12.4 52 6.0 CALM 0 0 0 0 1010.0 1008.6 0.0
20/01:30am 23.5 23.2 11.5 47 6.8 SE 4 6 2 3 1010.2 1008.8 0.0
20/01:00am 25.3 25.1 11.8 43 7.8 N 4 6 2 3 1010.3 1008.9 0.0
20/12:30am 24.3 23.6 11.9 45 7.1 NNE 7 11 4 6 1010.4 1009.0 0.0
20/12:00am 24.6 22.7 11.9 45 7.3 NE 13 17 7 9 1010.6 1009.1 0.0
 
Date/Time
EST
Temp
°C
App
Temp
°C
Dew
Point
°C
Rel
Hum
%
Delta-T
°C
Wind Press
QNH
hPa
Press
MSL
hPa
Rain since
9am
mm
Dir  Spd
km/h
Gust
km/h
Spd
kts
Gust
kts
19/11:30pm 25.2 24.1 9.9 38 8.5 W 6 7 3 4 1010.4 1009.0 0.0
19/11:00pm 25.2 23.4 9.5 37 8.7 SW 9 9 5 5 1010.2 1008.8 0.0
19/10:30pm 26.4 24.3 8.4 32 9.8 SSW 9 11 5 6 1010.0 1008.6 0.0
19/10:00pm 27.6 26.3 7.5 28 10.9 S 4 6 2 3 1009.9 1008.5 0.0
19/09:30pm 27.5 25.9 7.9 29 10.7 S 6 6 3 3 1009.8 1008.4 0.0
19/09:00pm 28.3 26.3 7.0 26 11.5 S 7 9 4 5 1009.3 1007.9 0.0
19/08:30pm 29.6 26.8 6.9 24 12.3 SSW 11 13 6 7 1009.0 1007.6 0.0
19/08:00pm 30.6 27.8 7.1 23 12.8 SSW 11 13 6 7 1008.7 1007.3 0.0
19/07:30pm 31.4 28.6 7.1 22 13.3 SW 11 13 6 7 1008.3 1006.9 0.0
19/07:00pm 32.4 29.1 6.6 20 14.1 SW 13 19 7 10 1008.0 1006.6 0.0
19/06:30pm 33.4 29.2 7.4 20 14.4 SW 19 24 10 13 1007.8 1006.4 0.0
19/06:00pm 34.3 30.3 8.1 20 14.8 SW 19 30 10 16 1007.4 1006.0 0.0
19/05:30pm 34.9 31.5 9.3 21 14.8 SSW 17 26 9 14 1007.1 1005.6 0.0
19/05:00pm 35.2 30.8 8.9 20 15.1 SSW 22 32 12 17 1007.0 1005.5 0.0
19/04:30pm 35.2 32.5 10.3 22 14.6 SSW 15 24 8 13 1006.8 1005.3 0.0
19/04:00pm 35.3 32.4 12.3 25 13.9 WSW 19 30 10 16 1006.8 1005.3 0.0
19/03:30pm 35.6 33.5 12.5 24 14.0 W 15 24 8 13 1006.7 1005.2 0.0
19/03:00pm 34.9 34.0 10.7 23 14.3 SSW 6 17 3 9 1006.9 1005.4 0.0
19/02:30pm 35.4 33.5 10.4 22 14.7 WSW 11 24 6 13 1007.5 1006.1 0.0
19/02:00pm 34.8 32.7 11.2 24 14.0 WNW 13 26 7 14 1008.0 1006.6 0.0
19/01:30pm 34.1 31.6 12.4 26 13.1 WNW 17 28 9 15 1008.4 1007.0 0.0
19/01:00pm 33.7 31.8 14.2 30 12.1 NW 17 28 9 15 1009.2 1007.8 0.0
19/12:30pm 32.9 30.9 15.4 35 11.0 NNW 20 32 11 17 1009.6 1008.2 0.0
19/12:00pm 32.4 30.6 15.4 36 10.6 NW 19 28 10 15 1010.0 1008.6 0.0
19/11:30am 31.4 30.1 17.3 43 9.0 NNW 20 32 11 17 1010.3 1008.9 0.0
19/11:00am 30.6 29.5 17.7 46 8.3 NNW 20 28 11 15 1010.6 1009.1 0.0
19/10:30am 29.6 29.2 19.0 53 6.9 NW 19 24 10 13 1011.0 1009.5 0.0
19/10:00am 29.0 29.2 20.2 59 5.8 NW 19 30 10 16 1011.2 1009.7 0.0
19/09:30am 27.9 28.7 21.4 67 4.4 NW 19 24 10 13 1011.3 1009.8 0.0
19/09:00am 26.2 27.4 22.1 78 2.8 NNW 19 22 10 12 1011.3 1009.8 5.0
19/08:30am 25.7 27.7 22.2 81 2.4 NNW 15 22 8 12 1011.1 1009.6 5.0
19/08:00am 24.7 26.4 22.4 87 1.6 N 17 22 9 12 1011.0 1009.5 5.0
19/07:30am 24.2 26.0 21.9 87 1.5 N 15 19 8 10 1010.8 1009.3 5.0
19/07:00am 23.8 25.9 21.7 88 1.4 N 13 19 7 10 1010.2 1008.8 5.0
19/06:30am 23.7 25.2 21.2 86 1.7 N 15 20 8 11 1010.0 1008.6 5.0
19/06:00am 24.0 26.4 22.3 90 1.1 N 13 19 7 10 1009.8 1008.4 5.0
19/05:30am 24.2 25.1 21.9 87 1.5 N 20 26 11 14 1009.4 1008.0 5.0
19/05:00am 24.1 25.0 21.6 86 1.7 N 19 24 10 13 1009.3 1007.9 5.0
19/04:30am 23.7 23.9 20.6 83 2.0 NNE 20 24 11 13 1008.7 1007.3 5.0
19/04:00am 23.3 23.9 21.0 87 1.5 NNE 19 26 10 14 1008.3 1006.9 5.0
19/03:30am 23.4 24.6 21.5 89 1.3 N 17 24 9 13 1008.5 1007.1 5.0
19/03:00am 23.5 24.9 21.9 91 1.1 N 17 20 9 11 1008.6 1007.2 4.8
19/02:30am 23.4 25.9 21.7 90 1.1 NNE 11 13 6 7 1009.0 1007.6 4.8
19/02:00am 23.5 25.9 21.6 89 1.3 NE 11 19 6 10 1009.6 1008.2 4.6
19/01:30am 23.8 27.1 21.5 87 1.5 NNE 6 9 3 5 1009.9 1008.5 4.4
19/01:00am 24.1 27.2 22.2 89 1.3 NNE 9 13 5 7 1010.3 1008.9 4.4
19/12:30am 23.6 26.2 21.9 90 1.1 NE 11 13 6 7 1010.7 1009.2 4.4
19/12:00am 23.8 26.9 22.1 90 1.1 NNE 9 11 5 6 1011.0 1009.5 4.4
 
Date/Time
EST
Temp
°C
App
Temp
°C
Dew
Point
°C
Rel
Hum
%
Delta-T
°C
Wind Press
QNH
hPa
Press
MSL
hPa
Rain since
9am
mm
Dir  Spd
km/h
Gust
km/h
Spd
kts
Gust
kts
18/11:30pm 24.3 26.3 22.2 88 1.4 NE 15 20 8 11 1011.5 1010.0 4.2
18/11:00pm 26.1 26.8 20.4 71 3.8 E 17 24 9 13 1011.5 1010.0 0.0
18/10:30pm 27.6 27.3 20.4 65 4.8 SE 22 30 12 16 1011.2 1009.7 0.0
18/10:00pm 28.2 26.8 19.7 60 5.6 SE 26 33 14 18 1010.7 1009.2 0.0
18/09:30pm 31.0 31.7 18.0 45 8.4 NW 11 15 6 8 1009.5 1008.1 0.0
18/09:00pm 31.3 31.4 18.3 46 8.5 WNW 15 19 8 10 1009.3 1007.9 0.0
18/08:30pm 31.6 31.0 17.5 43 9.1 W 17 24 9 13 1009.2 1007.8 0.0
18/08:00pm 32.0 32.7 17.9 43 9.1 WSW 11 15 6 8 1008.9 1007.5 0.0
18/07:30pm 32.2 32.3 19.1 45 8.6 SW 17 22 9 12 1008.6 1007.2 0.0
18/07:00pm 34.5 34.3 18.5 38 10.5 WNW 17 24 9 13 1008.0 1006.6 0.0
18/06:30pm 34.9 34.5 18.0 36 11.0 NW 17 22 9 12 1007.7 1006.3 0.0
18/06:00pm 35.8 35.0 17.9 34 11.7 WNW 19 28 10 15 1007.4 1006.0 0.0
18/05:30pm 36.0 35.1 19.0 36 11.3 WNW 22 32 12 17 1006.7 1005.2 0.0
18/05:00pm 37.0 36.6 19.0 34 12.0 NW 19 28 10 15 1007.0 1005.5 0.0
18/04:30pm 35.6 34.5 18.7 37 11.2 NW 22 32 12 17 1007.0 1005.5 0.0
18/04:00pm 36.6 34.7 18.6 34 11.9 NW 26 33 14 18 1006.8 1005.3 0.0
18/03:30pm 37.2 36.5 18.7 33 12.3 NNW 20 30 11 16 1007.5 1006.1 0.0
18/03:00pm 36.9 35.7 18.4 33 12.2 NNW 22 35 12 19 1007.8 1006.4 0.0
18/02:30pm 37.4 37.0 19.3 34 12.1 NNW 20 32 11 17 1008.2 1006.8 0.0
18/02:00pm 36.5 36.9 19.0 35 11.7 WNW 15 28 8 15 1009.0 1007.6 0.0
18/01:30pm 34.6 34.8 20.2 43 9.7 NW 19 28 10 15 1009.8 1008.4 0.0
18/01:00pm 35.0 36.3 20.2 42 10.0 NW 13 28 7 15 1010.3 1008.9 0.0
18/12:30pm 34.1 34.8 20.5 45 9.2 WNW 17 24 9 13 1011.0 1009.5 0.0
18/12:00pm 33.8 34.2 20.6 46 8.9 NW 19 28 10 15 1011.2 1009.7 0.0
18/11:30am 33.6 34.2 21.1 48 8.5 NW 19 28 10 15 1011.6 1010.1 0.0
18/11:00am 33.8 34.3 20.9 46 8.7 NW 19 26 10 14 1011.7 1010.2 0.0
18/10:30am 33.2 33.6 20.7 47 8.4 WNW 19 28 10 15 1011.9 1010.4 0.0
18/10:00am 32.4 33.0 21.0 51 7.7 WNW 19 32 10 17 1012.1 1010.7 0.0
18/09:30am 31.6 32.3 21.2 54 7.0 WNW 19 26 10 14 1012.2 1010.8 0.0
18/09:00am 30.6 32.2 21.4 58 6.2 WNW 15 24 8 13 1012.3 1010.9 0.0
18/08:30am 29.6 30.5 21.5 61 5.5 NW 19 26 10 14 1011.9 1010.4 0.0
18/08:00am 28.8 30.2 21.1 63 5.2 NW 15 19 8 10 1011.6 1010.1 0.0
18/07:30am 27.9 28.9 21.0 66 4.6 NW 17 22 9 12 1011.3 1009.8 0.0
18/07:00am 27.0 28.6 20.8 69 4.1 NNW 13 19 7 10 1010.7 1009.2 0.0
18/06:30am 26.7 28.2 20.5 69 4.1 NNW 13 19 7 10 1010.4 1009.0 0.0
18/06:00am 26.4 28.1 20.9 72 3.7 NNW 13 17 7 9 1010.2 1008.8 0.0
18/05:30am 26.9 28.4 21.2 71 3.8 NNW 15 20 8 11 1009.9 1008.5 0.0
18/05:00am 27.1 27.8 21.2 70 3.9 NNW 19 26 10 14 1009.8 1008.4 0.0
18/04:30am 27.5 28.8 20.8 67 4.5 NNW 15 22 8 12 1009.7 1008.3 0.0
18/04:00am 27.6 27.9 20.4 65 4.8 N 19 24 10 13 1009.6 1008.2 0.0
18/03:30am 28.0 28.1 20.0 61 5.3 N 19 28 10 15 1009.5 1008.1 0.0
18/03:00am 28.8 28.0 20.0 59 5.8 N 24 30 13 16 1009.3 1007.9 0.0
18/02:30am 29.3 28.8 19.9 57 6.2 N 22 30 12 16 1009.5 1008.1 0.0
18/02:00am 29.5 30.7 19.8 56 6.4 N 13 17 7 9 1009.6 1008.2 0.0
18/01:30am 28.9 30.6 20.1 59 5.8 N 11 17 6 9 1009.7 1008.3 0.0
18/01:00am 29.3 30.4 19.6 56 6.4 NNE 13 19 7 10 1009.8 1008.4 0.0
18/12:30am 28.8 30.4 19.1 55 6.3 N 9 20 5 11 1009.9 1008.5 0.0
18/12:00am 29.0 30.4 18.7 53 6.7 NW 9 11 5 6 1010.1 1008.7 0.0
 
Date/Time
EST
Temp
°C
App
Temp
°C
Dew
Point
°C
Rel
Hum
%
Delta-T
°C
Wind Press
QNH
hPa
Press
MSL
hPa
Rain since
9am
mm
Dir  Spd
km/h
Gust
km/h
Spd
kts
Gust
kts
17/11:30pm 29.7 31.2 18.8 52 7.1 NW 9 11 5 6 1010.4 1009.0 0.0
17/11:00pm 30.6 31.3 18.0 47 8.1 NNW 11 15 6 8 1010.7 1009.2 0.0
17/10:30pm 30.5 31.1 17.6 46 8.3 NNW 11 13 6 7 1010.8 1009.3 0.0
17/10:00pm 30.8 31.4 16.8 43 8.9 N 9 13 5 7 1010.6 1009.1 0.0
17/09:30pm 31.2 32.2 16.8 42 9.2 N 7 9 4 5 1010.6 1009.1 0.0
17/09:00pm 31.8 32.7 16.1 38 9.9 N 6 7 3 4 1010.3 1008.9 0.0
17/08:30pm 33.2 33.4 15.7 35 11.0 N 9 11 5 6 1009.9 1008.5 0.0
17/08:00pm 33.6 33.9 16.0 34 11.2 N 9 9 5 5 1009.5 1008.1 0.0
17/07:30pm 34.6 35.1 15.5 32 12.0 NNE 7 11 4 6 1009.1 1007.7 0.0
17/07:00pm 35.9 35.3 15.6 30 12.9 NNE 13 19 7 10 1009.0 1007.6 0.0
17/06:30pm 36.8 36.8 15.3 28 13.6 ENE 9 13 5 7 1008.7 1007.3 0.0
17/06:00pm 36.5 36.8 16.1 29 13.1 NNE 9 13 5 7 1008.4 1007.0 0.0
17/05:30pm 36.6 37.5 16.7 30 12.8 N 7 13 4 7 1008.4 1007.0 0.0
17/05:00pm 36.9 38.3 16.5 30 13.2 ENE 4 9 2 5 1008.5 1007.1 0.0
17/04:30pm 37.9 39.1 16.8 29 13.7 NNE 6 13 3 7 1008.7 1007.3 0.0

Other Formats:

Comma delimited format used in spreadsheet applications
http://www.bom.gov.au/fwo/IDQ60801/IDQ60801.94342.axf

JavaScript Object Notation format (JSON) in row-major order
http://www.bom.gov.au/fwo/IDQ60801/IDQ60801.94342.json